Aeroporto :
LOGIN :

Iscrizione | Disclaimer

   EN    FR    IT 

 










Sommario :    VFR   VFR Marginale   IFR   IFR Intensivo   IFR Molto Intensivo
Visibilità : 
Base nubi : 
>= 8 km
>= 3000ft
5 / 8 km
1000 / 3000 ft
1500m / 5 km
500 / 1000 ft
800 / 1500m
200 / 500 ft
< 800m
< 200 ft
Simboli :   Temporali  Nebbia  Neve Forte  Precipitazioni Forti  Vento > 20 kt
SIGMETs :   Varie  Temporali  Ghiacco  Turbolenza  Onda orograficha  Ceneri Vulcaniche






- Altitudine del aeroporto : 313 ft
- Codice IATA : LEH


LFOH - Le Havre Octeville

ULTIMO METAR :
  • 171800Z AUTO 25020KT 9999 FEW030 BKN084 BKN130 08/04 Q1019 TEMPO 24028G48KT 2000 TSRAGS BKN020CB

METARs OBSOLETI :
  • 171730Z AUTO 26022KT CAVOK 08/04 Q1019 TEMPO 24028G48KT 2000 TSRAGS BKN020CB
  • 171700Z AUTO 26024KT 9999 FEW022 SCT092 BKN120 08/04 Q1018 TEMPO 24028G48KT 2000 TSRAGS BKN020CB
  • 171630Z AUTO 26019KT 9999 FEW046/// SCT058/// BKN074/// ///TCU 08/05 Q1018 TEMPO 24028G48KT 2000 TSRAGS BKN020CB
  • 171600Z AUTO 28015KT 250V310 9999 SCT017/// BKN024/// BKN035/// ///TCU 08/06 Q1018 TEMPO 24028G48KT 2000 TSRAGS BKN020CB
  • 171530Z AUTO 25021KT 9999 FEW023/// BKN039/// BKN049/// ///TCU 09/06 Q1017 TEMPO 24028G48KT 2000 TSRAGS BKN020CB

TAF TAF LFOH
Valido dal 17 a 12 ore il 18 a 12 ore UTC


171100Z 1712/1812 24018G28KT 9999 BKN030
TEMPO 1712/1810 24025G38KT 4000 SHRA BKN020CB
PROB40
TEMPO 1712/1724 24028G48KT 2000 TSRAGS
ATIS : +33 2 35 54 64 93



MetMap, La meteo Aeronautica in un colpo d'occhio ! - Copyright ORBIFLY Dicembre 2007 - Disclaimer

ORBIFLY MET'MAP TEAM :

Programmazione e sviluppo : Alexandra Zaïnal
Concezione : Baudouin d'Aumeries
Aiuto per la programmazione : Marc-Olivier Méhu
Supporto tecnico e logistico : Manuel Goepfert
Aiuto per la traduzione : Arnaldo La Scala

Contatto : metmap@orbifly.com




FONTI E CREDITI :

   NOAA